createdAt,value
2022-09-02T00:01:17.201Z,52.45
2022-09-02T00:03:44.188Z,52.46
2022-09-02T00:06:10.824Z,52.55
2022-09-02T00:08:37.919Z,52.42
2022-09-02T00:11:06.136Z,52.51
2022-09-02T00:13:35.490Z,52.54
2022-09-02T00:16:03.204Z,52.83
2022-09-02T00:18:30.003Z,52.71
2022-09-02T00:20:56.649Z,52.77
2022-09-02T00:23:23.197Z,53.14
2022-09-02T00:25:53.602Z,53.10
2022-09-02T00:28:20.028Z,52.87
2022-09-02T00:30:47.908Z,52.94
2022-09-02T00:33:14.906Z,53.10
2022-09-02T00:35:42.225Z,52.92
2022-09-02T00:38:09.454Z,53.14
2022-09-02T00:40:36.670Z,53.23
2022-09-02T00:43:07.670Z,53.10
2022-09-02T00:45:35.986Z,52.77
2022-09-02T00:48:02.664Z,53.26
2022-09-02T00:50:34.121Z,53.15
2022-09-02T00:53:06.184Z,53.46
2022-09-02T00:55:44.874Z,53.41
2022-09-02T00:58:34.992Z,53.33
2022-09-02T01:01:01.624Z,53.48
2022-09-02T01:03:30.890Z,53.62
2022-09-02T01:05:59.249Z,53.78
2022-09-02T01:08:30.043Z,53.75
2022-09-02T01:10:57.400Z,54.01
2022-09-02T01:13:26.966Z,54.06
2022-09-02T01:15:58.999Z,54.13
2022-09-02T01:18:31.261Z,54.03
2022-09-02T01:20:59.718Z,54.19
2022-09-02T01:23:28.384Z,54.18
2022-09-02T01:25:58.864Z,54.35
2022-09-02T01:28:25.888Z,54.34
2022-09-02T01:30:54.240Z,54.20
2022-09-02T01:33:23.117Z,54.20
2022-09-02T01:35:52.304Z,54.28
2022-09-02T01:38:20.948Z,54.35
2022-09-02T01:40:47.618Z,54.18
2022-09-02T01:43:18.808Z,54.68
2022-09-02T01:45:50.145Z,54.59
2022-09-02T01:48:21.779Z,54.45
2022-09-02T01:50:58.743Z,54.86
2022-09-02T01:53:25.468Z,54.28
2022-09-02T01:55:52.915Z,54.68
2022-09-02T01:58:19.443Z,54.51
2022-09-02T02:00:46.676Z,54.96
2022-09-02T02:03:13.884Z,54.55
2022-09-02T02:05:41.211Z,54.95
2022-09-02T02:08:08.055Z,54.78
2022-09-02T02:10:35.303Z,54.96
2022-09-02T02:13:02.116Z,55.12
2022-09-02T02:17:57.023Z,55.26
2022-09-02T02:20:23.510Z,55.16
2022-09-02T02:22:50.166Z,55.03
2022-09-02T02:25:17.188Z,54.94
2022-09-02T02:27:44.136Z,55.30
2022-09-02T02:30:13.438Z,55.30
2022-09-02T02:32:40.259Z,55.20
2022-09-02T02:35:07.757Z,55.39
2022-09-02T02:37:34.692Z,55.33
2022-09-02T02:40:01.130Z,55.10
2022-09-02T02:42:28.884Z,55.27
2022-09-02T02:44:55.316Z,55.34
2022-09-02T02:47:22.171Z,55.27
2022-09-02T02:49:48.805Z,55.65
2022-09-02T02:52:16.604Z,55.47
2022-09-02T02:54:43.202Z,55.72
2022-09-02T02:57:10.520Z,55.92
2022-09-02T02:59:37.727Z,55.61
2022-09-02T03:02:06.295Z,55.60
2022-09-02T03:04:35.396Z,55.72
2022-09-02T03:07:02.966Z,55.59
2022-09-02T03:09:29.636Z,55.54
2022-09-02T03:11:57.165Z,55.64
2022-09-02T03:14:24.706Z,55.75
2022-09-02T03:16:51.785Z,55.90
2022-09-02T03:19:18.397Z,55.91
2022-09-02T03:21:45.134Z,55.84
2022-09-02T03:24:12.333Z,56.10
2022-09-02T03:26:41.905Z,56.56
2022-09-02T03:29:09.609Z,56.36
2022-09-02T03:31:36.360Z,56.15
2022-09-02T03:34:04.252Z,56.42
2022-09-02T03:36:38.893Z,56.29
2022-09-02T03:39:10.002Z,56.70
2022-09-02T03:41:41.201Z,56.56
2022-09-02T03:44:09.066Z,56.27
2022-09-02T03:46:35.672Z,57.04
2022-09-02T03:49:04.087Z,56.74
2022-09-02T03:51:31.928Z,56.67
2022-09-02T03:53:58.950Z,56.58
2022-09-02T03:56:26.330Z,56.91
2022-09-02T03:58:53.267Z,56.88
2022-09-02T04:01:27.985Z,57.16
2022-09-02T04:04:04.853Z,57.06
2022-09-02T04:06:33.196Z,57.33
2022-09-02T04:09:02.738Z,57.04
2022-09-02T04:11:29.514Z,57.09
2022-09-02T04:13:56.450Z,56.94
2022-09-02T04:16:28.495Z,57.16
2022-09-02T04:19:03.907Z,57.66
2022-09-02T04:21:36.889Z,57.43
2022-09-02T04:24:04.916Z,57.89
2022-09-02T04:26:32.172Z,57.26
2022-09-02T04:28:59.445Z,57.21
2022-09-02T04:31:31.818Z,57.63
2022-09-02T04:33:59.977Z,57.95
2022-09-02T04:36:29.055Z,57.84
2022-09-02T04:38:59.611Z,57.71
2022-09-02T04:41:30.833Z,57.89
2022-09-02T04:44:02.100Z,57.97
2022-09-02T04:46:34.994Z,57.72
2022-09-02T04:49:04.705Z,58.14
2022-09-02T04:51:32.946Z,57.81
2022-09-02T04:54:01.522Z,57.72
2022-09-02T04:56:30.966Z,57.81
2022-09-02T04:58:59.144Z,57.97
2022-09-02T05:01:31.865Z,57.86
2022-09-02T05:04:02.175Z,57.99
2022-09-02T05:06:37.121Z,58.37
2022-09-02T05:09:08.545Z,57.89
2022-09-02T05:11:38.779Z,58.49
2022-09-02T05:14:06.743Z,58.50
2022-09-02T05:16:38.268Z,58.66
2022-09-02T05:19:10.229Z,58.48
2022-09-02T05:21:42.810Z,58.62
2022-09-02T05:24:12.899Z,58.19
2022-09-02T05:26:44.569Z,58.45
2022-09-02T05:29:13.872Z,58.63
2022-09-02T05:31:41.951Z,58.74
2022-09-02T05:34:12.296Z,58.34
2022-09-02T05:36:39.039Z,58.98
2022-09-02T05:39:06.148Z,58.77
2022-09-02T05:41:34.937Z,58.49
2022-09-02T05:44:04.236Z,59.23
2022-09-02T05:46:32.906Z,58.81
2022-09-02T05:49:09.246Z,59.54
2022-09-02T05:51:52.851Z,59.27
2022-09-02T05:54:32.406Z,59.21
2022-09-02T05:57:06.307Z,59.22
2022-09-02T05:59:36.945Z,58.59
2022-09-02T06:02:03.643Z,59.14
2022-09-02T06:04:32.018Z,58.96
2022-09-02T06:06:59.623Z,58.56
2022-09-02T06:09:27.084Z,58.50
2022-09-02T06:11:54.441Z,58.52
2022-09-02T06:14:25.670Z,58.97
2022-09-02T06:16:55.044Z,58.82
2022-09-02T06:19:32.535Z,58.55
2022-09-02T06:22:04.651Z,58.74
2022-09-02T06:24:34.070Z,58.11
2022-09-02T06:27:07.343Z,58.20
2022-09-02T06:29:37.784Z,58.37
2022-09-02T06:32:05.877Z,58.38
2022-09-02T06:34:32.537Z,57.92
2022-09-02T06:36:59.115Z,58.12
2022-09-02T06:39:26.406Z,58.58
2022-09-02T06:41:55.927Z,58.13
2022-09-02T06:44:24.488Z,58.42
2022-09-02T06:46:58.430Z,57.84
2022-09-02T06:49:27.323Z,57.96
2022-09-02T06:51:56.738Z,58.02
2022-09-02T06:54:28.547Z,57.91
2022-09-02T06:57:05.206Z,57.76
2022-09-02T06:59:32.161Z,57.34
2022-09-02T07:01:59.092Z,57.41
2022-09-02T07:04:45.836Z,57.43
2022-09-02T07:07:15.610Z,57.02
2022-09-02T07:09:50.339Z,56.50
2022-09-02T07:12:19.513Z,56.47
2022-09-02T07:14:57.048Z,56.35
2022-09-02T07:17:28.992Z,56.43
2022-09-02T07:20:00.961Z,56.33
2022-09-02T07:22:31.290Z,56.35
2022-09-02T07:25:00.613Z,56.55
2022-09-02T07:27:27.448Z,55.76
2022-09-02T07:29:56.283Z,56.23
2022-09-02T07:32:23.020Z,56.06
2022-09-02T07:34:49.516Z,56.38
2022-09-02T07:37:16.020Z,56.22
2022-09-02T07:39:45.141Z,55.98
2022-09-02T07:42:14.360Z,56.07
2022-09-02T07:44:41.986Z,55.68
2022-09-02T07:47:09.277Z,55.61
2022-09-02T07:52:26.428Z,54.85
2022-09-02T07:54:54.629Z,55.16
2022-09-02T07:57:21.366Z,54.95
2022-09-02T07:59:48.163Z,54.85
2022-09-02T08:02:18.040Z,54.38
2022-09-02T08:04:45.487Z,54.27
2022-09-02T08:07:12.143Z,54.08
2022-09-02T08:09:38.891Z,53.81
2022-09-02T08:12:06.077Z,53.55
2022-09-02T08:14:32.509Z,53.25
2022-09-02T08:16:59.998Z,53.15
2022-09-02T08:19:27.323Z,52.98
2022-09-02T08:21:53.791Z,52.54
2022-09-02T08:24:20.359Z,52.11
2022-09-02T08:26:46.958Z,52.19
2022-09-02T08:29:13.542Z,52.28
2022-09-02T08:31:40.046Z,51.99
2022-09-02T08:34:06.623Z,51.35
2022-09-02T08:36:33.063Z,50.58
2022-09-02T08:39:02.539Z,50.29
2022-09-02T08:41:47.524Z,50.19
2022-09-02T08:44:21.323Z,50.33
2022-09-02T08:46:50.753Z,50.61
2022-09-02T08:49:26.093Z,50.22
2022-09-02T08:52:00.830Z,50.53
2022-09-02T08:54:27.749Z,50.19
2022-09-02T08:56:55.969Z,50.00
2022-09-02T08:59:26.040Z,50.05
2022-09-02T09:02:05.033Z,50.14
2022-09-02T09:04:43.792Z,49.78
2022-09-02T09:07:27.108Z,49.02
2022-09-02T09:10:03.427Z,49.20
2022-09-02T09:12:44.094Z,48.59
2022-09-02T09:15:28.702Z,48.41
2022-09-02T09:18:05.179Z,47.55
2022-09-02T09:20:34.705Z,47.67
2022-09-02T09:23:09.237Z,46.74
2022-09-02T09:25:36.628Z,46.76
2022-09-02T09:28:03.264Z,46.15
2022-09-02T09:30:29.811Z,46.05
2022-09-02T09:33:00.095Z,45.73
2022-09-02T09:35:28.338Z,45.80
2022-09-02T09:37:55.908Z,45.67
2022-09-02T09:40:32.721Z,45.79
2022-09-02T09:43:05.711Z,45.51
2022-09-02T09:45:47.721Z,45.03
2022-09-02T09:48:15.584Z,44.25
2022-09-02T09:50:47.046Z,44.75
2022-09-02T09:53:28.898Z,43.75
2022-09-02T09:55:56.741Z,43.78
2022-09-02T09:58:42.199Z,44.00
2022-09-02T10:01:19.751Z,43.31
2022-09-02T10:04:04.912Z,43.48
2022-09-02T10:06:33.259Z,43.15
2022-09-02T10:09:06.601Z,42.11
2022-09-02T10:11:36.558Z,41.91
2022-09-02T10:14:05.846Z,41.29
2022-09-02T10:17:00.491Z,40.70
2022-09-02T10:19:39.140Z,40.55
2022-09-02T10:22:59.609Z,40.31
2022-09-02T10:25:53.801Z,39.70
2022-09-02T10:28:26.678Z,38.14
2022-09-02T10:31:08.917Z,36.47
2022-09-02T10:33:45.562Z,33.71
2022-09-02T10:36:34.831Z,30.35
2022-09-02T10:39:15.336Z,28.30
2022-09-02T10:41:48.485Z,26.42
2022-09-02T10:44:20.922Z,24.72
2022-09-02T10:47:01.104Z,26.03
2022-09-02T10:49:50.148Z,25.21
2022-09-02T10:52:45.287Z,22.25
2022-09-02T10:55:30.299Z,21.69
2022-09-02T10:58:06.063Z,21.25
2022-09-02T11:00:36.252Z,19.90
2022-09-02T11:03:24.283Z,18.47
2022-09-02T11:05:59.635Z,17.35
2022-09-02T11:08:45.702Z,17.21
2022-09-02T11:11:21.484Z,15.27
2022-09-02T11:14:15.562Z,16.63
2022-09-02T11:17:03.890Z,18.46
2022-09-02T11:19:39.827Z,18.79
2022-09-02T11:22:27.331Z,18.58
2022-09-02T11:25:10.419Z,17.33
2022-09-02T11:27:49.132Z,15.32
2022-09-02T11:30:20.964Z,14.40
2022-09-02T11:32:55.898Z,13.85
2022-09-02T11:35:28.868Z,12.39
2022-09-02T11:38:10.385Z,12.97
2022-09-02T11:44:14.632Z,12.02
2022-09-02T11:47:19.152Z,11.82
2022-09-02T11:50:03.234Z,12.61
2022-09-02T11:52:51.033Z,12.88
2022-09-02T11:55:25.080Z,13.20
2022-09-02T11:57:54.201Z,12.45
2022-09-02T12:00:50.371Z,14.08
2022-09-02T12:03:46.619Z,14.23
2022-09-02T12:06:19.232Z,13.67
2022-09-02T12:08:45.750Z,14.34
2022-09-02T12:11:41.527Z,15.10
2022-09-02T12:14:13.754Z,13.65
2022-09-02T12:16:42.709Z,12.60
2022-09-02T12:19:10.809Z,12.12
2022-09-02T12:22:15.622Z,14.08
2022-09-02T12:25:28.235Z,16.37
2022-09-02T12:28:26.149Z,17.80
2022-09-02T12:30:56.280Z,18.84
2022-09-02T12:33:37.637Z,18.83
2022-09-02T12:36:06.009Z,20.71
2022-09-02T12:38:39.000Z,22.05
2022-09-02T12:41:07.713Z,22.22
2022-09-02T12:44:19.460Z,22.89
2022-09-02T12:46:54.961Z,23.21
2022-09-02T12:49:35.343Z,23.81
2022-09-02T12:52:29.919Z,24.84
2022-09-02T12:54:57.100Z,25.03
2022-09-02T12:57:40.069Z,22.79
2022-09-02T13:00:07.491Z,18.65
2022-09-02T13:02:59.813Z,18.92
2022-09-02T13:05:53.305Z,20.70
2022-09-02T13:08:48.988Z,22.62
2022-09-02T13:11:49.387Z,21.97
2022-09-02T13:14:45.333Z,18.55
2022-09-02T13:17:37.140Z,15.49
2022-09-02T13:20:26.984Z,14.26
2022-09-02T13:23:14.980Z,13.20
2022-09-02T13:26:02.667Z,13.76
2022-09-02T13:28:47.901Z,14.87
2022-09-02T13:31:24.571Z,14.97
2022-09-02T13:34:05.518Z,15.49
2022-09-02T13:36:38.075Z,16.36
2022-09-02T13:39:20.902Z,17.78
2022-09-02T13:41:49.152Z,19.37
2022-09-02T13:44:29.461Z,20.41
2022-09-02T13:47:17.654Z,19.53
2022-09-02T13:49:47.255Z,18.79
2022-09-02T13:52:18.563Z,18.85
2022-09-02T13:54:50.976Z,18.75
2022-09-02T13:57:22.145Z,19.60
2022-09-02T13:59:56.028Z,20.64
2022-09-02T14:02:29.169Z,21.58
2022-09-02T14:05:02.414Z,22.82
2022-09-02T14:07:43.749Z,22.68
2022-09-02T14:10:15.504Z,23.17
2022-09-02T14:12:42.965Z,23.11
2022-09-02T14:15:12.940Z,23.45
2022-09-02T14:17:39.723Z,24.37
2022-09-02T14:20:15.042Z,24.41
2022-09-02T14:22:42.252Z,24.15
2022-09-02T14:25:13.476Z,25.20
2022-09-02T14:27:41.026Z,26.00
2022-09-02T14:30:10.174Z,25.82
2022-09-02T14:32:36.670Z,26.18
2022-09-02T14:35:18.420Z,25.57
2022-09-02T14:37:57.555Z,25.96
2022-09-02T14:40:36.982Z,25.57
2022-09-02T14:43:04.574Z,25.55
2022-09-02T14:45:33.666Z,26.07
2022-09-02T14:48:03.416Z,26.56
2022-09-02T14:50:32.743Z,27.13
2022-09-02T14:53:10.150Z,27.52
2022-09-02T14:55:40.500Z,27.81
2022-09-02T14:58:06.926Z,28.62
2022-09-02T15:00:34.736Z,28.62
2022-09-02T15:03:01.787Z,28.70
2022-09-02T15:05:28.945Z,28.25
2022-09-02T15:07:56.698Z,28.45
2022-09-02T15:10:23.661Z,28.57
2022-09-02T15:12:53.674Z,28.66
2022-09-02T15:15:20.539Z,28.61
2022-09-02T15:17:46.967Z,28.69
2022-09-02T15:20:13.820Z,29.10
2022-09-02T15:22:40.252Z,29.32
2022-09-02T15:25:10.615Z,28.99
2022-09-02T15:27:37.273Z,29.15
2022-09-02T15:30:05.644Z,29.09
2022-09-02T15:32:32.236Z,29.24
2022-09-02T15:34:58.623Z,29.44
2022-09-02T15:37:26.044Z,29.44
2022-09-02T15:39:52.770Z,29.26
2022-09-02T15:42:19.651Z,29.93
2022-09-02T15:44:46.251Z,29.67
2022-09-02T15:47:12.681Z,29.68
2022-09-02T15:49:39.221Z,30.19
2022-09-02T15:52:05.981Z,30.11
2022-09-02T15:54:32.530Z,30.70
2022-09-02T15:56:59.344Z,30.67
2022-09-02T15:59:26.489Z,30.33
2022-09-02T16:01:55.902Z,31.02
2022-09-02T16:04:23.130Z,30.60
2022-09-02T16:06:52.256Z,30.69
2022-09-02T16:09:19.791Z,31.34
2022-09-02T16:11:49.142Z,31.09
2022-09-02T16:14:20.788Z,31.37
2022-09-02T16:16:49.696Z,31.44
2022-09-02T16:19:21.373Z,31.59
2022-09-02T16:21:49.049Z,31.49
2022-09-02T16:24:18.006Z,31.56
2022-09-02T16:26:44.433Z,31.63
2022-09-02T16:29:13.910Z,31.51
2022-09-02T16:31:42.832Z,31.52
2022-09-02T16:34:11.551Z,31.81
2022-09-02T16:36:43.549Z,31.51
2022-09-02T16:39:11.990Z,32.16
2022-09-02T16:41:43.675Z,31.82
2022-09-02T16:44:18.819Z,31.71
2022-09-02T16:46:46.717Z,31.63
2022-09-02T16:49:19.476Z,32.00
2022-09-02T16:51:50.650Z,32.09
2022-09-02T16:54:31.428Z,32.37
2022-09-02T16:57:00.992Z,32.37
2022-09-02T16:59:27.742Z,31.71
2022-09-02T17:01:54.272Z,31.78
2022-09-02T17:04:20.676Z,32.17
2022-09-02T17:06:47.153Z,32.18
2022-09-02T17:09:13.732Z,32.29
2022-09-02T17:11:41.329Z,32.32
2022-09-02T17:14:15.186Z,32.43
2022-09-02T17:16:47.953Z,32.61
2022-09-02T17:19:20.774Z,32.94
2022-09-02T17:21:54.539Z,33.06
2022-09-02T17:24:24.336Z,33.35
2022-09-02T17:26:54.131Z,33.58
2022-09-02T17:32:09.444Z,34.03
2022-09-02T17:34:36.889Z,34.00
2022-09-02T17:37:05.056Z,34.26
2022-09-02T17:39:33.695Z,34.49
2022-09-02T17:42:00.220Z,34.94
2022-09-02T17:44:33.414Z,35.07
2022-09-02T17:47:00.017Z,35.35
2022-09-02T17:49:26.732Z,35.48
2022-09-02T17:51:53.231Z,35.51
2022-09-02T17:54:19.911Z,35.43
2022-09-02T17:57:09.507Z,35.47
2022-09-02T18:00:05.867Z,35.65
2022-09-02T18:02:55.209Z,35.76
2022-09-02T18:05:37.251Z,36.12
2022-09-02T18:08:31.709Z,35.87
2022-09-02T18:11:03.038Z,35.97
2022-09-02T18:13:47.642Z,37.15
2022-09-02T18:16:48.302Z,36.57
2022-09-02T18:19:20.786Z,36.16
2022-09-02T18:22:06.351Z,36.37
2022-09-02T18:24:41.002Z,36.48
2022-09-02T18:27:28.131Z,36.77
2022-09-02T18:30:10.255Z,36.98
2022-09-02T18:32:45.620Z,36.88
2022-09-02T18:35:34.038Z,37.04
2022-09-02T18:38:17.261Z,36.92
2022-09-02T18:41:07.890Z,36.91
2022-09-02T18:43:47.450Z,37.54
2022-09-02T18:46:17.291Z,37.47
2022-09-02T18:48:46.741Z,37.56
2022-09-02T18:51:39.063Z,37.60
2022-09-02T18:54:26.550Z,37.43
2022-09-02T18:56:57.452Z,37.85
2022-09-02T19:00:01.796Z,37.72
2022-09-02T19:02:30.986Z,37.91
2022-09-02T19:04:58.594Z,38.11
2022-09-02T19:07:45.904Z,38.34
2022-09-02T19:10:14.024Z,38.22
2022-09-02T19:12:42.784Z,38.39
2022-09-02T19:15:13.204Z,38.56
2022-09-02T19:17:40.527Z,38.56
2022-09-02T19:20:08.367Z,38.54
2022-09-02T19:22:42.921Z,38.60
2022-09-02T19:25:17.434Z,38.69
2022-09-02T19:27:46.150Z,38.66
2022-09-02T19:30:18.823Z,38.68
2022-09-02T19:32:48.742Z,39.08
2022-09-02T19:35:19.026Z,39.17
2022-09-02T19:37:47.364Z,39.17
2022-09-02T19:40:18.716Z,39.14
2022-09-02T19:42:45.304Z,39.09
2022-09-02T19:45:15.975Z,39.12
2022-09-02T19:50:29.532Z,39.40
2022-09-02T19:52:55.916Z,39.75
2022-09-02T19:55:22.691Z,39.72
2022-09-02T19:57:49.616Z,39.77
2022-09-02T20:00:16.324Z,39.90
2022-09-02T20:02:43.022Z,39.79
2022-09-02T20:05:12.486Z,39.75
2022-09-02T20:07:39.535Z,40.33
2022-09-02T20:10:07.069Z,40.15
2022-09-02T20:12:35.659Z,40.05
2022-09-02T20:15:04.433Z,40.09
2022-09-02T20:17:31.640Z,40.02
2022-09-02T20:20:02.516Z,40.10
2022-09-02T20:22:30.761Z,40.28
2022-09-02T20:24:57.907Z,40.32
2022-09-02T20:27:36.087Z,40.13
2022-09-02T20:30:09.143Z,40.25
2022-09-02T20:32:55.622Z,39.99
2022-09-02T20:35:53.041Z,40.27
2022-09-02T20:38:40.925Z,40.25
2022-09-02T20:41:51.823Z,40.42
2022-09-02T20:44:47.348Z,40.26
2022-09-02T20:47:33.977Z,40.44
2022-09-02T20:50:13.519Z,40.92
2022-09-02T20:53:11.345Z,40.99
2022-09-02T20:56:01.976Z,40.54
2022-09-02T20:58:41.566Z,40.98
2022-09-02T21:01:17.420Z,41.04
2022-09-02T21:04:18.832Z,41.08
2022-09-02T21:06:53.038Z,41.14
2022-09-02T21:09:48.345Z,41.03
2022-09-02T21:12:32.395Z,41.18
2022-09-02T21:15:07.325Z,41.12
2022-09-02T21:17:58.783Z,41.30
2022-09-02T21:20:42.411Z,41.44
2022-09-02T21:23:19.141Z,41.47
2022-09-02T21:25:53.932Z,41.41
2022-09-02T21:28:28.102Z,41.42
2022-09-02T21:31:03.014Z,41.20
2022-09-02T21:33:33.690Z,41.27
2022-09-02T21:36:02.477Z,41.31
2022-09-02T21:38:44.801Z,41.44
2022-09-02T21:41:11.216Z,41.04
2022-09-02T21:43:56.829Z,41.34
2022-09-02T21:46:57.788Z,41.48
2022-09-02T21:49:54.316Z,41.18
2022-09-02T21:52:52.115Z,41.47
2022-09-02T21:55:48.275Z,41.17
2022-09-02T21:58:29.919Z,41.13
2022-09-02T22:01:11.360Z,41.19
2022-09-02T22:03:53.444Z,41.06
2022-09-02T22:06:32.939Z,40.96
2022-09-02T22:09:10.865Z,41.29
2022-09-02T22:11:43.277Z,40.95
2022-09-02T22:14:16.248Z,41.15
2022-09-02T22:16:47.581Z,41.37
2022-09-02T22:19:16.128Z,41.23
2022-09-02T22:21:50.467Z,41.10
2022-09-02T22:24:19.797Z,41.14
2022-09-02T22:26:53.106Z,41.28
2022-09-02T22:29:32.106Z,41.31
2022-09-02T22:32:01.347Z,41.19
2022-09-02T22:34:33.707Z,41.31
2022-09-02T22:37:07.827Z,41.42
2022-09-02T22:39:53.799Z,41.21
2022-09-02T22:42:25.304Z,41.60
2022-09-02T22:45:25.446Z,41.44
2022-09-02T22:48:17.633Z,41.76
2022-09-02T22:51:18.967Z,41.51
2022-09-02T22:53:47.972Z,41.54
2022-09-02T22:56:21.448Z,41.59
2022-09-02T22:59:10.710Z,41.58
2022-09-02T23:01:55.969Z,41.94
2022-09-02T23:04:53.200Z,41.81
2022-09-02T23:07:19.639Z,41.92
2022-09-02T23:09:48.133Z,41.99
2022-09-02T23:12:31.624Z,42.45
2022-09-02T23:15:32.879Z,42.00
2022-09-02T23:18:08.534Z,42.33
2022-09-02T23:20:46.503Z,42.53
2022-09-02T23:23:26.570Z,42.53
2022-09-02T23:26:19.737Z,42.25
2022-09-02T23:29:16.433Z,42.45
2022-09-02T23:32:23.406Z,42.65
2022-09-02T23:35:14.190Z,42.65
2022-09-02T23:38:16.009Z,42.83
2022-09-02T23:41:12.187Z,42.66
2022-09-02T23:43:42.763Z,43.00
2022-09-02T23:46:33.480Z,43.12
2022-09-02T23:49:24.732Z,43.31
2022-09-02T23:52:09.264Z,43.10
2022-09-02T23:54:56.286Z,43.31
2022-09-02T23:57:31.788Z,43.20
